Time;durP1;ratioP1;P1;durP2;ratioP2;P2;SDS_P1;SDS_P2;PMS_P1;PMS_P2;Temp;Humidity;BMP_temperature;BMP_pressure;BME280_temperature;BME280_humidity;BME280_pressure;Samples;Min_cycle;Max_cycle;Signal;HPM_P1;HPM_P2
2023/05/18 00:01:15;;;;;;;10.32;3.03;;;8.80;99.90;;;;;;7358436;19;20026;-58
2023/05/18 00:03:42;;;;;;;7.88;3.22;;;8.90;99.90;;;;;;7361943;19;20014;-66
2023/05/18 00:06:08;;;;;;;10.90;3.40;;;8.90;99.90;;;;;;7358918;19;20022;-65
2023/05/18 00:08:36;;;;;;;11.18;3.30;;;8.90;99.90;;;;;;7360667;19;20082;-66
2023/05/18 00:11:03;;;;;;;9.23;3.10;;;8.80;99.90;;;;;;7357788;19;20025;-59
2023/05/18 00:13:30;;;;;;;7.78;3.00;;;8.90;99.90;;;;;;7363703;19;20033;-66
2023/05/18 00:15:56;;;;;;;10.80;3.00;;;8.90;99.90;;;;;;7364453;19;20018;-66
2023/05/18 00:18:23;;;;;;;10.85;2.88;;;8.80;99.90;;;;;;7359890;19;20021;-59
2023/05/18 00:20:59;;;;;;;12.05;3.50;;;8.90;99.90;;;;;;7362289;19;20015;-59
2023/05/18 00:23:28;;;;;;;13.10;3.30;;;8.80;99.90;;;;;;7357571;19;20461;-58
2023/05/18 00:25:56;;;;;;;10.10;2.92;;;8.80;99.90;;;;;;7357817;19;20367;-58
2023/05/18 00:28:28;;;;;;;8.63;2.95;;;8.70;99.90;;;;;;7358022;19;20018;-59
2023/05/18 00:30:56;;;;;;;13.82;3.67;;;8.70;99.90;;;;;;7360337;19;20022;-58
2023/05/18 00:33:28;;;;;;;10.13;3.15;;;8.60;99.90;;;;;;7358726;19;20014;-59
2023/05/18 00:35:56;;;;;;;11.98;3.40;;;8.60;99.90;;;;;;7363763;19;20073;-58
2023/05/18 00:38:22;;;;;;;8.73;3.28;;;8.60;99.90;;;;;;7358109;19;20023;-58
2023/05/18 00:40:48;;;;;;;9.48;3.28;;;8.60;99.90;;;;;;7360789;19;20710;-58
2023/05/18 00:43:17;;;;;;;9.23;3.25;;;8.60;99.90;;;;;;7360649;19;20054;-59
2023/05/18 00:45:44;;;;;;;7.78;3.53;;;8.60;99.90;;;;;;7358306;19;20541;-58
2023/05/18 00:48:13;;;;;;;12.73;3.70;;;8.60;99.90;;;;;;7352624;19;20644;-58
2023/05/18 00:50:39;;;;;;;10.73;3.70;;;8.60;99.90;;;;;;7354693;19;20396;-58
2023/05/18 00:53:06;;;;;;;9.15;3.22;;;8.50;99.90;;;;;;7358693;19;20102;-58
2023/05/18 00:55:32;;;;;;;12.80;3.78;;;8.50;99.90;;;;;;7354609;19;20030;-58
2023/05/18 00:58:01;;;;;;;8.50;3.72;;;8.50;99.90;;;;;;7360276;19;20106;-58
2023/05/18 01:00:28;;;;;;;8.93;4.03;;;8.40;99.90;;;;;;7355064;19;20022;-58
2023/05/18 01:02:55;;;;;;;10.35;3.38;;;8.40;99.90;;;;;;7361903;19;20053;-58
2023/05/18 01:05:22;;;;;;;9.63;3.28;;;8.40;99.90;;;;;;7359485;19;20583;-59
2023/05/18 01:07:49;;;;;;;8.25;3.13;;;8.40;99.90;;;;;;7358202;19;20018;-58
2023/05/18 01:10:18;;;;;;;9.55;3.42;;;8.40;99.90;;;;;;7354385;19;20035;-58
2023/05/18 01:12:52;;;;;;;7.55;4.00;;;8.40;99.90;;;;;;7359508;19;20413;-58
2023/05/18 01:15:33;;;;;;;14.45;3.58;;;8.40;99.90;;;;;;7355020;19;20031;-58
2023/05/18 01:18:22;;;;;;;12.43;4.32;;;8.40;99.90;;;;;;7357042;19;20019;-58
2023/05/18 01:20:56;;;;;;;9.38;4.07;;;8.40;99.90;;;;;;7358006;19;20042;-58
2023/05/18 01:23:36;;;;;;;9.30;3.65;;;8.40;99.90;;;;;;7357602;19;20438;-65
2023/05/18 01:26:13;;;;;;;10.50;3.72;;;8.40;99.90;;;;;;7360477;19;20646;-66
2023/05/18 01:28:47;;;;;;;9.80;3.50;;;8.40;99.90;;;;;;7356968;19;20273;-65
2023/05/18 01:31:15;;;;;;;9.20;3.97;;;8.40;99.90;;;;;;7368586;19;20018;-65
2023/05/18 01:33:42;;;;;;;13.75;3.80;;;8.40;99.90;;;;;;7357102;19;20797;-66
2023/05/18 01:36:09;;;;;;;11.70;3.38;;;8.40;99.90;;;;;;7350435;19;20041;-65
2023/05/18 01:38:36;;;;;;;9.27;4.25;;;8.40;99.90;;;;;;7352848;19;20056;-65
2023/05/18 01:41:25;;;;;;;10.73;3.50;;;8.50;99.90;;;;;;7353412;19;20019;-58
2023/05/18 01:43:53;;;;;;;14.07;3.95;;;8.40;99.90;;;;;;7349968;19;20022;-59
2023/05/18 01:46:28;;;;;;;11.30;3.67;;;8.40;99.90;;;;;;7360511;19;20383;-58
2023/05/18 01:49:00;;;;;;;10.02;3.60;;;8.40;99.90;;;;;;7351340;19;20027;-58
2023/05/18 01:51:31;;;;;;;12.15;3.92;;;8.40;99.90;;;;;;7359756;19;20026;-58
2023/05/18 01:54:06;;;;;;;10.63;3.30;;;8.40;99.90;;;;;;7359893;19;20015;-58
2023/05/18 01:56:33;;;;;;;11.95;4.50;;;8.30;99.90;;;;;;7373632;19;20398;-58
2023/05/18 01:59:02;;;;;;;12.75;4.20;;;8.30;99.90;;;;;;7370352;19;20082;-58
2023/05/18 02:01:29;;;;;;;9.85;3.95;;;8.40;99.90;;;;;;7372747;19;20022;-58
2023/05/18 02:03:55;;;;;;;9.88;4.07;;;8.40;99.90;;;;;;7358041;19;20022;-58
2023/05/18 02:06:22;;;;;;;12.68;4.25;;;8.40;99.90;;;;;;7351298;19;20026;-66
2023/05/18 02:08:50;;;;;;;9.50;4.00;;;8.40;99.90;;;;;;7354769;19;20460;-66
2023/05/18 02:11:17;;;;;;;12.10;3.63;;;8.40;99.90;;;;;;7349881;19;20377;-58
2023/05/18 02:13:43;;;;;;;7.60;3.05;;;8.40;99.90;;;;;;7355065;19;20483;-58
2023/05/18 02:16:10;;;;;;;12.73;4.05;;;8.30;99.90;;;;;;7355617;19;20018;-58
2023/05/18 02:18:37;;;;;;;10.27;3.40;;;8.40;99.90;;;;;;7358039;19;20022;-58
2023/05/18 02:21:03;;;;;;;11.40;4.03;;;8.40;99.90;;;;;;7354683;19;20018;-58
2023/05/18 02:23:32;;;;;;;14.40;3.70;;;8.40;99.90;;;;;;7359963;19;20019;-59
2023/05/18 02:25:58;;;;;;;10.98;3.60;;;8.40;99.90;;;;;;7357596;19;20498;-59
2023/05/18 02:28:25;;;;;;;9.43;3.60;;;8.40;99.90;;;;;;7353920;19;20018;-60
2023/05/18 02:31:02;;;;;;;7.82;3.08;;;8.40;99.90;;;;;;7360680;19;20019;-59
2023/05/18 02:33:35;;;;;;;12.45;3.20;;;8.40;99.90;;;;;;7358455;19;20093;-58
2023/05/18 02:36:02;;;;;;;8.73;3.50;;;8.40;99.90;;;;;;7355714;19;20082;-58
2023/05/18 02:38:28;;;;;;;11.20;3.80;;;8.30;99.90;;;;;;7358789;19;20023;-59
2023/05/18 02:40:55;;;;;;;12.38;3.20;;;8.30;99.90;;;;;;7356969;19;20063;-59
2023/05/18 02:43:21;;;;;;;10.20;3.90;;;8.30;99.90;;;;;;7352544;19;20513;-66
2023/05/18 02:45:47;;;;;;;8.75;2.80;;;8.30;99.90;;;;;;7353075;19;20026;-66
2023/05/18 02:48:14;;;;;;;9.65;3.40;;;8.30;99.90;;;;;;7353962;19;20022;-66
2023/05/18 02:50:42;;;;;;;9.23;3.45;;;8.30;99.90;;;;;;7354344;19;20381;-66
2023/05/18 02:53:09;;;;;;;8.82;2.90;;;8.20;99.90;;;;;;7353000;19;20089;-66
2023/05/18 02:55:36;;;;;;;8.52;3.80;;;8.20;99.90;;;;;;7354952;19;20745;-66
2023/05/18 02:58:12;;;;;;;8.02;2.83;;;8.20;99.90;;;;;;7347789;19;20078;-66
2023/05/18 03:01:02;;;;;;;9.18;3.25;;;8.20;99.90;;;;;;7352575;19;20025;-66
2023/05/18 03:03:35;;;;;;;10.45;3.15;;;8.20;99.90;;;;;;7365150;19;20022;-66
2023/05/18 03:06:01;;;;;;;10.00;3.42;;;8.20;99.90;;;;;;7369915;19;20021;-66
2023/05/18 03:08:28;;;;;;;11.75;3.13;;;8.10;99.90;;;;;;7366718;19;20029;-66
2023/05/18 03:10:54;;;;;;;9.70;3.60;;;8.10;99.90;;;;;;7368700;19;20768;-66
2023/05/18 03:13:21;;;;;;;7.28;2.38;;;8.20;99.90;;;;;;7367508;19;20014;-66
2023/05/18 03:15:48;;;;;;;10.00;2.90;;;8.10;99.90;;;;;;7369157;19;20026;-69
2023/05/18 03:18:14;;;;;;;13.25;3.40;;;8.10;99.90;;;;;;7366668;19;20596;-66
2023/05/18 03:20:41;;;;;;;13.05;2.92;;;8.10;99.90;;;;;;7366987;19;20563;-66
2023/05/18 03:23:07;;;;;;;15.70;3.30;;;8.10;99.90;;;;;;7368506;19;20026;-66
2023/05/18 03:25:36;;;;;;;8.40;2.97;;;8.10;99.90;;;;;;7368426;19;20473;-66
2023/05/18 03:28:05;;;;;;;10.55;3.42;;;8.10;99.90;;;;;;7367944;19;20010;-66
2023/05/18 03:30:32;;;;;;;8.95;3.08;;;8.10;99.90;;;;;;7367213;19;20022;-66
2023/05/18 03:33:02;;;;;;;7.03;2.92;;;8.10;99.90;;;;;;7367582;19;20553;-58
2023/05/18 03:35:31;;;;;;;9.32;3.30;;;8.10;99.90;;;;;;7373434;19;20041;-59
2023/05/18 03:37:57;;;;;;;10.18;3.78;;;8.10;99.90;;;;;;7372754;19;20015;-59
2023/05/18 03:40:24;;;;;;;6.15;3.20;;;8.10;99.90;;;;;;7374085;19;20067;-59
2023/05/18 03:42:50;;;;;;;16.65;3.95;;;8.00;99.90;;;;;;7377701;19;20055;-59
2023/05/18 03:45:17;;;;;;;13.60;4.15;;;8.00;99.90;;;;;;7373466;19;20467;-59
2023/05/18 03:47:43;;;;;;;12.48;3.47;;;8.00;99.90;;;;;;7377706;19;20026;-58
2023/05/18 03:50:10;;;;;;;13.10;3.30;;;7.90;99.90;;;;;;7373574;19;20527;-66
2023/05/18 03:52:38;;;;;;;9.88;3.50;;;7.90;99.90;;;;;;7376329;19;20482;-66
2023/05/18 03:55:06;;;;;;;11.60;3.40;;;7.90;99.90;;;;;;7372034;19;20603;-66
2023/05/18 03:57:36;;;;;;;9.88;3.75;;;7.90;99.90;;;;;;7373048;19;20014;-66
2023/05/18 04:00:08;;;;;;;12.52;3.65;;;7.90;99.90;;;;;;7372069;19;20029;-59
2023/05/18 04:02:43;;;;;;;10.27;3.67;;;7.90;99.90;;;;;;7376986;19;20022;-59
2023/05/18 04:05:10;;;;;;;11.35;3.78;;;8.00;99.90;;;;;;7369991;19;20021;-58
2023/05/18 04:07:42;;;;;;;11.35;4.20;;;7.90;99.90;;;;;;7377991;19;20366;-58
2023/05/18 04:10:15;;;;;;;11.27;3.58;;;7.90;99.90;;;;;;7371949;19;20022;-59
2023/05/18 04:12:42;;;;;;;10.38;3.30;;;7.90;99.90;;;;;;7376248;19;20829;-66
2023/05/18 04:15:13;;;;;;;9.35;3.60;;;8.00;99.90;;;;;;7370046;19;20018;-65
2023/05/18 04:17:44;;;;;;;10.75;3.63;;;7.90;99.90;;;;;;7374750;19;20022;-65
2023/05/18 04:20:14;;;;;;;7.57;3.47;;;8.00;99.90;;;;;;7369714;19;20377;-66
2023/05/18 04:22:47;;;;;;;9.32;2.97;;;8.00;99.90;;;;;;7377191;19;20046;-65
2023/05/18 04:25:14;;;;;;;12.93;4.05;;;8.00;99.90;;;;;;7374598;19;20031;-65
2023/05/18 04:27:44;;;;;;;7.30;3.50;;;8.00;99.90;;;;;;7374690;19;20349;-65
2023/05/18 04:30:12;;;;;;;11.18;3.33;;;8.10;99.90;;;;;;7371225;19;20437;-65
2023/05/18 04:32:41;;;;;;;11.20;3.38;;;8.10;99.90;;;;;;7374393;19;20624;-65
2023/05/18 04:35:09;;;;;;;7.88;3.00;;;8.10;99.90;;;;;;7371521;19;20035;-65
2023/05/18 04:37:39;;;;;;;12.27;2.95;;;8.10;99.90;;;;;;7375117;19;20019;-65
2023/05/18 04:40:12;;;;;;;9.17;2.87;;;8.10;99.90;;;;;;7368034;19;20454;-65
2023/05/18 04:42:46;;;;;;;9.82;3.17;;;8.10;99.90;;;;;;7372137;19;20022;-66
2023/05/18 04:45:16;;;;;;;8.52;2.92;;;8.20;99.90;;;;;;7371500;19;20019;-65
2023/05/18 04:47:45;;;;;;;9.43;2.95;;;8.20;99.90;;;;;;7371293;19;21213;-65
2023/05/18 04:50:16;;;;;;;9.25;3.35;;;8.30;99.90;;;;;;7374841;19;20469;-65
2023/05/18 04:52:49;;;;;;;5.30;2.60;;;8.40;99.90;;;;;;7369890;19;20025;-65
2023/05/18 04:55:26;;;;;;;8.82;2.30;;;8.50;99.90;;;;;;7371612;19;20044;-58
2023/05/18 04:57:56;;;;;;;9.25;3.22;;;8.50;99.90;;;;;;7372864;19;20379;-58
2023/05/18 05:00:30;;;;;;;9.95;3.03;;;8.50;99.90;;;;;;7373191;19;20050;-65
2023/05/18 05:02:57;;;;;;;11.75;2.63;;;8.60;99.90;;;;;;7371563;19;20024;-66
2023/05/18 05:05:24;;;;;;;12.05;2.97;;;8.70;99.90;;;;;;7372782;19;20024;-60
2023/05/18 05:07:52;;;;;;;11.55;2.85;;;8.70;99.90;;;;;;7373912;19;20026;-59
2023/05/18 05:10:19;;;;;;;8.48;2.55;;;8.70;99.90;;;;;;7372245;19;20054;-59
2023/05/18 05:12:46;;;;;;;11.00;2.88;;;8.80;99.90;;;;;;7371230;19;20023;-58
2023/05/18 05:15:12;;;;;;;9.25;2.42;;;8.90;99.90;;;;;;7372495;19;20042;-60
2023/05/18 05:17:39;;;;;;;6.07;2.40;;;8.80;99.90;;;;;;7372374;19;20028;-64
2023/05/18 05:20:08;;;;;;;8.10;2.58;;;8.90;99.90;;;;;;7368907;19;20014;-64
2023/05/18 05:22:34;;;;;;;9.70;2.67;;;9.00;99.90;;;;;;7373882;19;20023;-65
2023/05/18 05:25:02;;;;;;;9.93;2.95;;;9.00;99.90;;;;;;7374287;19;20028;-59
2023/05/18 05:27:29;;;;;;;7.05;2.25;;;9.00;99.90;;;;;;7368896;19;20019;-65
2023/05/18 05:29:55;;;;;;;7.88;2.25;;;8.90;99.90;;;;;;7375332;19;20019;-65
2023/05/18 05:32:21;;;;;;;6.63;2.25;;;9.10;99.90;;;;;;7365906;19;20018;-66
2023/05/18 05:34:50;;;;;;;7.18;2.50;;;9.20;99.90;;;;;;7369193;19;20022;-59
2023/05/18 05:37:18;;;;;;;8.43;2.97;;;9.10;99.90;;;;;;7368206;19;20110;-64
2023/05/18 05:39:45;;;;;;;11.43;2.38;;;9.20;99.90;;;;;;7368252;19;20466;-59
2023/05/18 05:42:15;;;;;;;7.85;2.25;;;9.30;99.90;;;;;;7368506;19;20015;-65
2023/05/18 05:44:42;;;;;;;8.70;2.53;;;9.30;99.90;;;;;;7369962;19;20025;-65
2023/05/18 05:47:09;;;;;;;8.60;2.17;;;9.40;99.90;;;;;;7371232;19;20053;-58
2023/05/18 05:49:35;;;;;;;4.18;1.75;;;9.40;99.90;;;;;;7372971;19;20023;-59
2023/05/18 05:52:01;;;;;;;9.75;2.00;;;9.50;99.90;;;;;;7369839;19;20086;-66
2023/05/18 05:54:29;;;;;;;5.97;2.40;;;9.50;99.90;;;;;;7364679;19;20437;-59
2023/05/18 05:56:55;;;;;;;6.43;2.60;;;9.50;99.90;;;;;;7367434;19;20547;-66
2023/05/18 05:59:22;;;;;;;7.93;3.70;;;9.50;99.90;;;;;;7367982;19;20021;-64
2023/05/18 06:01:48;;;;;;;12.68;3.05;;;9.60;99.90;;;;;;7365999;19;20018;-67
2023/05/18 06:04:15;;;;;;;8.80;2.28;;;9.60;99.90;;;;;;7371203;19;20028;-66
2023/05/18 06:06:42;;;;;;;5.40;2.38;;;9.80;99.90;;;;;;7370694;19;20010;-66
2023/05/18 06:09:10;;;;;;;10.02;2.40;;;9.80;99.90;;;;;;7367885;19;20482;-66
2023/05/18 06:11:36;;;;;;;8.18;2.58;;;9.80;99.90;;;;;;7370754;19;20556;-66
2023/05/18 06:14:03;;;;;;;9.55;2.55;;;9.90;99.90;;;;;;7366372;19;20121;-66
2023/05/18 06:16:29;;;;;;;6.22;2.08;;;9.90;99.90;;;;;;7364623;19;20022;-66
2023/05/18 06:18:55;;;;;;;9.35;2.08;;;10.00;99.90;;;;;;7365081;19;20021;-66
2023/05/18 06:21:21;;;;;;;8.23;2.63;;;10.00;99.90;;;;;;7365429;19;20014;-66
2023/05/18 06:23:48;;;;;;;7.80;1.73;;;10.10;99.90;;;;;;7365817;19;20026;-66
2023/05/18 06:26:32;;;;;;;8.27;2.25;;;10.10;99.90;;;;;;7365342;19;20018;-59
2023/05/18 06:29:07;;;;;;;7.70;2.40;;;10.20;99.90;;;;;;7368347;19;20335;-59
2023/05/18 06:31:54;;;;;;;9.13;2.42;;;10.30;99.90;;;;;;7370134;19;20010;-59
2023/05/18 06:34:28;;;;;;;10.25;2.42;;;10.50;99.90;;;;;;7365030;19;20388;-59
2023/05/18 06:36:54;;;;;;;11.18;2.30;;;10.70;99.90;;;;;;7370130;19;20382;-59
2023/05/18 06:39:21;;;;;;;5.97;2.08;;;10.70;99.90;;;;;;7367670;19;20029;-60
2023/05/18 06:41:50;;;;;;;4.30;1.88;;;10.80;99.90;;;;;;7367904;19;20017;-59
2023/05/18 06:44:22;;;;;;;11.57;2.47;;;10.90;99.90;;;;;;7369701;19;20022;-59
2023/05/18 06:47:05;;;;;;;7.07;2.22;;;11.00;99.90;;;;;;7369774;19;20018;-60
2023/05/18 06:49:32;;;;;;;8.88;2.22;;;11.20;99.90;;;;;;7367359;19;20022;-59
2023/05/18 06:51:58;;;;;;;11.38;3.10;;;11.30;99.90;;;;;;7367439;19;20023;-60
2023/05/18 06:54:24;;;;;;;12.52;2.75;;;11.50;99.90;;;;;;7364357;19;20014;-60
2023/05/18 06:56:51;;;;;;;11.55;2.60;;;11.50;99.90;;;;;;7367719;19;20010;-59
2023/05/18 06:59:17;;;;;;;8.25;2.15;;;11.80;99.90;;;;;;7366589;19;20531;-59
2023/05/18 07:01:44;;;;;;;7.95;2.22;;;11.80;99.90;;;;;;7365521;19;20015;-58
2023/05/18 07:04:12;;;;;;;8.32;2.55;;;11.90;99.90;;;;;;7367065;19;20039;-60
2023/05/18 07:06:38;;;;;;;8.25;2.10;;;11.80;99.90;;;;;;7367206;19;20026;-59
2023/05/18 07:09:08;;;;;;;9.50;2.10;;;11.80;99.90;;;;;;7371976;19;20042;-60
2023/05/18 07:11:34;;;;;;;11.93;2.38;;;12.00;99.90;;;;;;7371882;19;20032;-59
2023/05/18 07:14:00;;;;;;;5.72;2.03;;;12.00;99.90;;;;;;7377312;19;20387;-58
2023/05/18 07:16:26;;;;;;;6.60;2.00;;;12.10;99.20;;;;;;7375508;19;20026;-59
2023/05/18 07:18:53;;;;;;;7.45;2.30;;;12.00;99.90;;;;;;7374225;19;20049;-58
2023/05/18 07:21:19;;;;;;;10.20;3.03;;;12.10;99.90;;;;;;7372393;19;20081;-58
2023/05/18 07:23:46;;;;;;;6.18;1.80;;;12.30;99.90;;;;;;7374912;19;20027;-58
2023/05/18 07:26:12;;;;;;;9.38;2.50;;;12.30;99.90;;;;;;7379317;19;20022;-58
2023/05/18 07:28:38;;;;;;;7.68;1.92;;;12.30;99.70;;;;;;7380050;19;20019;-60
2023/05/18 07:31:05;;;;;;;6.82;1.73;;;12.50;99.90;;;;;;7376559;19;20586;-66
2023/05/18 07:33:31;;;;;;;9.20;2.50;;;12.60;97.80;;;;;;7377350;19;20627;-66
2023/05/18 07:35:58;;;;;;;7.55;2.33;;;12.60;97.10;;;;;;7378997;19;20025;-63
2023/05/18 07:38:25;;;;;;;8.45;2.28;;;12.40;97.00;;;;;;7378086;19;20069;-63
2023/05/18 07:40:51;;;;;;;7.25;1.83;;;12.50;96.90;;;;;;7375434;19;20018;-63
2023/05/18 07:43:18;;;;;;;6.90;2.15;;;12.60;96.40;;;;;;7377014;19;20086;-63
2023/05/18 07:45:44;;;;;;;7.40;2.45;;;12.60;96.80;;;;;;7378436;19;20045;-63
2023/05/18 07:48:11;;;;;;;7.68;2.50;;;12.80;97.40;;;;;;7376575;19;20677;-64
2023/05/18 07:50:37;;;;;;;6.07;1.70;;;13.10;95.00;;;;;;7374377;19;20462;-64
2023/05/18 07:53:03;;;;;;;8.18;2.00;;;13.10;94.70;;;;;;7372903;19;20449;-63
2023/05/18 07:55:29;;;;;;;8.85;3.10;;;13.20;91.30;;;;;;7375210;19;20513;-64
2023/05/18 07:57:56;;;;;;;5.40;2.15;;;13.00;91.60;;;;;;7373878;19;20052;-63
2023/05/18 08:00:22;;;;;;;10.05;2.10;;;12.90;91.90;;;;;;7360958;19;20014;-63
2023/05/18 08:02:49;;;;;;;9.98;2.30;;;13.20;92.20;;;;;;7368198;19;20030;-63
2023/05/18 08:05:15;;;;;;;6.93;2.22;;;12.90;90.00;;;;;;7370911;19;20035;-58
2023/05/18 08:07:41;;;;;;;9.50;2.20;;;13.00;89.70;;;;;;7370743;19;20011;-63
2023/05/18 08:10:08;;;;;;;17.38;2.60;;;13.10;87.10;;;;;;7369581;19;20019;-59
2023/05/18 08:12:34;;;;;;;7.32;2.00;;;13.60;90.00;;;;;;7370519;19;20022;-58
2023/05/18 08:15:01;;;;;;;9.20;2.28;;;13.80;85.80;;;;;;7370427;19;20023;-63
2023/05/18 08:17:27;;;;;;;8.27;1.90;;;13.90;83.30;;;;;;7371769;19;20367;-63
2023/05/18 08:19:54;;;;;;;9.32;2.20;;;14.20;79.10;;;;;;7365305;19;20036;-58
2023/05/18 08:22:20;;;;;;;7.03;2.00;;;14.30;73.70;;;;;;7371556;19;20489;-63
2023/05/18 08:24:46;;;;;;;8.63;1.98;;;14.50;72.90;;;;;;7371799;19;20014;-63
2023/05/18 08:27:12;;;;;;;5.53;2.08;;;14.80;71.50;;;;;;7373553;19;20028;-63
2023/05/18 08:29:39;;;;;;;5.25;1.70;;;14.60;71.00;;;;;;7367327;19;20025;-64
2023/05/18 08:32:06;;;;;;;5.07;1.98;;;15.30;72.30;;;;;;7380507;19;20098;-64
2023/05/18 08:34:33;;;;;;;9.00;2.85;;;15.30;69.90;;;;;;7380651;19;20476;-58
2023/05/18 08:37:00;;;;;;;7.13;2.33;;;14.90;68.30;;;;;;7378439;19;20711;-58
2023/05/18 08:39:30;;;;;;;6.45;1.90;;;15.70;69.00;;;;;;7378129;19;20033;-63
2023/05/18 08:42:19;;;;;;;5.95;2.05;;;15.90;67.40;;;;;;7379725;19;20014;-64
2023/05/18 08:44:58;;;;;;;7.63;1.83;;;16.10;61.90;;;;;;7374141;19;20100;-64
2023/05/18 08:47:26;;;;;;;8.63;2.33;;;16.40;62.00;;;;;;7373310;19;20061;-64
2023/05/18 08:49:55;;;;;;;6.85;2.25;;;16.60;63.60;;;;;;7375751;19;20014;-64
2023/05/18 08:52:26;;;;;;;8.77;1.85;;;16.90;58.70;;;;;;7375288;19;20018;-64
2023/05/18 08:54:54;;;;;;;5.72;2.08;;;16.80;59.50;;;;;;7370392;19;20022;-58
2023/05/18 08:57:22;;;;;;;7.70;1.63;;;16.70;58.50;;;;;;7367539;19;20033;-57
2023/05/18 08:59:51;;;;;;;8.98;1.80;;;16.00;58.30;;;;;;7366833;19;20845;-64
2023/05/18 09:02:18;;;;;;;6.75;1.80;;;16.00;59.70;;;;;;7368633;19;20045;-64
2023/05/18 09:04:45;;;;;;;5.85;1.95;;;16.20;60.10;;;;;;7364276;19;20031;-64
2023/05/18 09:07:13;;;;;;;6.13;1.60;;;16.20;60.20;;;;;;7364629;19;20017;-64
2023/05/18 09:09:40;;;;;;;10.55;2.28;;;16.00;59.10;;;;;;7314656;19;20023;-64
2023/05/18 09:12:07;;;;;;;4.88;2.17;;;16.10;58.80;;;;;;7365310;19;20019;-64
2023/05/18 09:14:33;;;;;;;6.03;2.10;;;16.30;58.20;;;;;;7366472;19;20019;-64
2023/05/18 09:16:59;;;;;;;7.10;2.05;;;16.50;59.10;;;;;;7363189;19;20407;-64
2023/05/18 09:19:27;;;;;;;7.97;2.22;;;16.80;58.90;;;;;;7364347;19;20503;-59
2023/05/18 09:21:53;;;;;;;6.93;2.45;;;17.10;57.20;;;;;;7361079;19;20405;-59
2023/05/18 09:24:21;;;;;;;6.28;1.95;;;17.40;56.90;;;;;;7366559;19;20019;-59
2023/05/18 09:26:47;;;;;;;10.20;2.20;;;17.80;56.60;;;;;;7367373;19;20014;-59
2023/05/18 09:29:23;;;;;;;14.25;2.67;;;17.50;56.30;;;;;;7366586;19;20779;-61
2023/05/18 09:31:52;;;;;;;9.02;3.13;;;17.60;56.40;;;;;;7365735;19;20018;-60
2023/05/18 09:34:18;;;;;;;6.63;1.80;;;17.40;55.90;;;;;;7368381;19;20022;-60
2023/05/18 09:36:53;;;;;;;9.48;2.38;;;17.80;54.70;;;;;;7368352;19;20022;-61
2023/05/18 09:39:19;;;;;;;6.82;1.88;;;18.20;56.80;;;;;;7362249;19;20039;-64
2023/05/18 09:41:53;;;;;;;6.30;2.08;;;18.20;54.20;;;;;;7364302;19;20023;-62
2023/05/18 09:44:35;;;;;;;7.15;1.80;;;18.30;52.40;;;;;;7370161;19;20054;-62
2023/05/18 09:47:10;;;;;;;14.27;4.40;;;18.90;53.40;;;;;;7363564;19;20427;-62
2023/05/18 09:49:39;;;;;;;11.07;2.40;;;18.90;52.60;;;;;;7363862;19;20094;-62
2023/05/18 09:52:08;;;;;;;10.23;2.63;;;18.40;51.90;;;;;;7371361;19;20021;-68
2023/05/18 09:54:36;;;;;;;6.22;2.20;;;18.80;51.50;;;;;;7370297;19;20015;-63
2023/05/18 09:57:04;;;;;;;6.15;2.45;;;18.80;52.80;;;;;;7366303;19;20014;-69
2023/05/18 09:59:30;;;;;;;7.25;2.25;;;19.10;52.60;;;;;;7365627;19;20049;-69
2023/05/18 10:02:01;;;;;;;5.93;2.10;;;19.50;51.60;;;;;;7365950;19;20018;-67
2023/05/18 10:04:41;;;;;;;8.15;2.03;;;19.70;51.70;;;;;;7363627;19;20022;-68
2023/05/18 10:07:12;;;;;;;8.70;2.00;;;20.00;50.10;;;;;;7366566;19;20014;-68
2023/05/18 10:09:40;;;;;;;6.15;2.00;;;19.70;50.00;;;;;;7367626;19;20083;-66
2023/05/18 10:12:14;;;;;;;6.43;2.50;;;19.90;48.80;;;;;;7364254;19;20400;-68
2023/05/18 10:14:42;;;;;;;6.32;2.00;;;19.50;49.30;;;;;;7364818;19;20033;-68
2023/05/18 10:17:13;;;;;;;5.53;1.75;;;19.90;50.70;;;;;;7364949;19;20014;-68
2023/05/18 10:19:40;;;;;;;6.13;2.00;;;20.00;49.60;;;;;;7360523;19;20021;-68
2023/05/18 10:22:11;;;;;;;5.05;2.00;;;19.80;50.00;;;;;;7365918;19;20043;-68
2023/05/18 10:24:40;;;;;;;5.97;2.30;;;19.80;48.70;;;;;;7367139;19;20017;-68
2023/05/18 10:27:08;;;;;;;8.35;2.13;;;19.40;49.00;;;;;;7363373;19;20978;-69
2023/05/18 10:29:39;;;;;;;9.02;2.55;;;19.30;48.90;;;;;;7365622;19;20081;-68
2023/05/18 10:32:10;;;;;;;11.15;2.53;;;19.50;48.90;;;;;;7364606;19;20491;-68
2023/05/18 10:34:39;;;;;;;7.35;2.58;;;19.00;49.90;;;;;;7364170;19;20363;-68
2023/05/18 10:37:06;;;;;;;7.10;2.10;;;20.00;49.70;;;;;;7367362;19;20022;-69
2023/05/18 10:39:38;;;;;;;5.63;2.08;;;20.40;49.00;;;;;;7366353;19;20608;-68
2023/05/18 10:42:09;;;;;;;6.50;1.90;;;20.70;49.30;;;;;;7366482;19;20018;-69
2023/05/18 10:44:37;;;;;;;4.72;1.98;;;20.60;48.10;;;;;;7361923;19;20011;-70
2023/05/18 10:47:07;;;;;;;7.88;2.25;;;20.70;47.10;;;;;;7362813;19;20018;-69
2023/05/18 10:49:38;;;;;;;8.73;2.42;;;20.70;46.40;;;;;;7365102;19;20036;-69
2023/05/18 10:52:06;;;;;;;6.28;1.88;;;20.60;46.60;;;;;;7369854;19;20032;-69
2023/05/18 10:54:32;;;;;;;5.35;2.22;;;20.80;47.00;;;;;;7372131;19;20454;-70
2023/05/18 10:57:01;;;;;;;6.18;2.58;;;20.70;47.00;;;;;;7373145;19;20025;-70
2023/05/18 10:59:27;;;;;;;6.85;2.35;;;20.50;47.60;;;;;;7370007;19;20011;-69
2023/05/18 11:01:54;;;;;;;7.43;2.20;;;20.80;47.80;;;;;;7370139;19;20105;-70
2023/05/18 11:04:31;;;;;;;8.18;2.17;;;21.00;45.70;;;;;;7369648;19;20496;-70
2023/05/18 11:07:01;;;;;;;5.40;1.80;;;20.30;45.00;;;;;;7369087;19;20025;-70
2023/05/18 11:09:28;;;;;;;7.13;2.22;;;20.30;47.30;;;;;;7366598;19;20019;-70
2023/05/18 11:11:59;;;;;;;6.60;2.05;;;20.80;48.00;;;;;;7371261;19;20018;-70
2023/05/18 11:14:27;;;;;;;5.63;2.08;;;21.10;45.80;;;;;;7366230;19;20022;-64
2023/05/18 11:16:53;;;;;;;7.43;2.50;;;21.50;46.30;;;;;;7373249;19;20022;-70
2023/05/18 11:19:25;;;;;;;6.65;2.13;;;21.60;46.70;;;;;;7368059;19;20019;-71
2023/05/18 11:21:52;;;;;;;6.53;2.40;;;21.60;43.80;;;;;;7372549;19;20021;-70
2023/05/18 11:24:30;;;;;;;5.60;2.30;;;21.50;45.40;;;;;;7367544;19;20015;-70
2023/05/18 11:26:58;;;;;;;8.13;2.42;;;21.60;45.20;;;;;;7369864;19;20046;-70
2023/05/18 11:29:36;;;;;;;6.43;2.47;;;21.60;45.30;;;;;;7370722;19;20094;-71
2023/05/18 11:32:02;;;;;;;6.20;2.60;;;20.40;44.10;;;;;;7371630;19;20431;-71
2023/05/18 11:34:55;;;;;;;8.15;2.50;;;21.20;45.20;;;;;;7369379;19;20010;-70
2023/05/18 11:37:40;;;;;;;9.27;2.35;;;21.40;46.50;;;;;;7370698;19;20026;-70
2023/05/18 11:40:10;;;;;;;8.15;2.33;;;21.50;46.40;;;;;;7366010;19;20019;-70
2023/05/18 11:42:37;;;;;;;5.80;2.50;;;21.60;46.80;;;;;;7370618;19;20015;-64
2023/05/18 11:45:07;;;;;;;5.53;1.90;;;21.50;45.80;;;;;;7365858;19;20416;-70
2023/05/18 11:47:39;;;;;;;8.32;2.65;;;21.60;45.40;;;;;;7372206;19;20125;-71
2023/05/18 11:50:06;;;;;;;;;;;21.60;44.10;;;;;;7371518;19;20022;-70
2023/05/18 11:52:43;;;;;;;7.70;2.40;;;21.30;44.50;;;;;;7370034;19;19936;-64
2023/05/18 11:55:13;;;;;;;6.90;2.50;;;21.30;44.80;;;;;;7368513;19;20431;-64
2023/05/18 11:57:42;;;;;;;6.15;2.40;;;20.80;44.30;;;;;;7376708;19;20018;-72
2023/05/18 12:00:10;;;;;;;7.95;2.35;;;20.70;44.30;;;;;;7376414;19;20099;-71
2023/05/18 12:02:44;;;;;;;7.88;2.50;;;20.60;44.40;;;;;;7380817;19;20026;-71
2023/05/18 12:05:10;;;;;;;5.70;2.10;;;20.60;45.80;;;;;;7377935;19;20355;-71
2023/05/18 12:07:38;;;;;;;10.23;3.05;;;20.90;45.00;;;;;;7379544;19;20078;-64
2023/05/18 12:10:11;;;;;;;5.45;2.20;;;21.10;46.20;;;;;;7376527;19;20378;-70
2023/05/18 12:12:38;;;;;;;9.23;2.72;;;20.90;44.70;;;;;;7375964;19;20054;-64
2023/05/18 12:15:07;;;;;;;10.98;2.78;;;21.10;44.90;;;;;;7375212;19;20107;-65
2023/05/18 12:17:43;;;;;;;6.18;2.50;;;21.10;45.50;;;;;;7375133;19;20379;-65
2023/05/18 12:20:11;;;;;;;6.38;2.17;;;21.00;45.50;;;;;;7377092;19;20026;-65
2023/05/18 12:22:44;;;;;;;7.97;2.70;;;21.10;44.70;;;;;;7378128;19;20787;-65
2023/05/18 12:25:11;;;;;;;5.85;2.28;;;20.90;44.70;;;;;;7378990;19;20618;-65
2023/05/18 12:27:46;;;;;;;6.18;2.50;;;21.30;46.50;;;;;;7374211;19;20022;-65
2023/05/18 12:30:16;;;;;;;8.45;2.42;;;22.00;46.90;;;;;;7378222;19;20022;-64
2023/05/18 12:32:53;;;;;;;10.23;2.45;;;22.40;45.50;;;;;;7377325;19;20036;-63
2023/05/18 12:35:24;;;;;;;5.22;2.35;;;22.60;44.00;;;;;;7373134;19;20736;-70
2023/05/18 12:37:54;;;;;;;5.85;2.65;;;22.50;42.30;;;;;;7379927;19;20022;-69
2023/05/18 12:40:22;;;;;;;8.18;2.63;;;22.70;43.10;;;;;;7374526;19;20010;-71
2023/05/18 12:42:57;;;;;;;7.72;2.50;;;23.00;42.90;;;;;;7379809;19;20347;-64
2023/05/18 12:45:25;;;;;;;10.52;2.58;;;23.00;42.50;;;;;;7375749;19;20436;-71
2023/05/18 12:47:54;;;;;;;8.15;2.35;;;22.70;42.30;;;;;;7374296;19;20659;-70
2023/05/18 12:50:22;;;;;;;6.47;2.63;;;22.80;43.20;;;;;;7375431;19;20022;-71
2023/05/18 12:52:49;;;;;;;5.90;2.60;;;22.80;42.20;;;;;;7375167;19;20022;-65
2023/05/18 12:55:20;;;;;;;5.65;2.35;;;22.40;41.70;;;;;;7373919;19;20022;-70
2023/05/18 12:58:04;;;;;;;7.97;2.30;;;22.90;43.60;;;;;;7374254;19;20100;-71